Elkhart, IN (46514)

8:20 PM EDT on April 25, 2017 (GMT -0400)
Martins Landing | | Change Station

Elev 741 ft 41.69 °N, 85.95 °W | Updated 5 seconds ago

Clear
Clear
71.5 °F
Feels Like 76 °F
N
0.0
Wind Variable Wind from WSW

Today
High -- | Low -- °F
--% Chance of Precip.
Yesterday
High -- | Low -- °F
Precip. -- in
Pressure 29.62 in
Visibility 10.0 miles
Clouds Clear
Heat Index 76 °F
Dew Point 57 °F
Humidity 61%
Rainfall 0.00 in
Snow Depth Not available.
6:48 AM 8:35 PM
Waning Crescent, 0% visible
METAR KEKM 252352Z 15008KT 10SM CLR 22/12 A2962 RMK AO2
Pressure 29.62 in
Visibility 10.0 miles
Clouds Clear
Heat Index 76 °F
Dew Point 57 °F
Humidity 61%
Rainfall 0.00 in
Snow Depth Not available.
6:48 AM 8:35 PM
Waning Crescent, 0% visible
METAR KEKM 252352Z 15008KT 10SM CLR 22/12 A2962 RMK AO2

Get Severe Weather Alerts

Thanks for signing up!

Be on the lookout for a verification email in your inbox.

You'll start receiving the daily forecast at 8 AM.

×

10-Day Weather Forecast

Almanac

Astronomy

Apr. 25, 2017 Rise Set
Actual Time
Civil Twilight
Nautical Twilight
Astronomical Twilight
Moon
Length of Visible Light
Length of Day
Tomorrow will be .
, % of the Moon is Illuminated

Today's Extremes

State Highs State Lows

Community

WunderPhotos

WunderBlog® & News

Nearby

Air Quality

  Air Quality AQ Index Pollutant
Not available.

Snow Depth

Station Depth Elevation

Earthquake Activity

City Distance Mag. Time & Date
Minimum magnitude displayed is 2.5.

Coastal Water Temperatures

Place Temperature

Stations

Nearby Weather Stations

Station Location Temp. Windchill Dew Point Humidity Wind Precip. Elev Updated Type
                   

Watches & Warnings

There are currently no watches in effect.